createdAt,value
2018-09-29T00:00:09.792Z,102554.01
2018-09-29T00:02:39.181Z,102561.52
2018-09-29T00:05:08.413Z,102560.05
2018-09-29T00:07:37.678Z,102563.01
2018-09-29T00:10:06.961Z,102561.42
2018-09-29T00:12:37.395Z,102553.67
2018-09-29T00:15:08.967Z,102552.39
2018-09-29T00:17:38.262Z,102548.21
2018-09-29T00:20:07.557Z,102550.56
2018-09-29T00:22:36.810Z,102546.69
2018-09-29T00:25:06.203Z,102553.32
2018-09-29T00:27:35.393Z,102549.13
2018-09-29T00:30:04.931Z,102550.05
2018-09-29T00:32:35.328Z,102554.04
2018-09-29T00:35:04.571Z,102546.16
2018-09-29T00:37:33.844Z,102541.83
2018-09-29T00:40:03.888Z,102541.11
2018-09-29T00:42:33.151Z,102540.14
2018-09-29T00:45:02.570Z,102530.59
2018-09-29T00:47:31.829Z,102537.23
2018-09-29T00:50:01.039Z,102532.37
2018-09-29T00:52:30.419Z,102538.11
2018-09-29T00:54:59.689Z,102534.05
2018-09-29T00:57:29.225Z,102540.30
2018-09-29T00:59:58.512Z,102539.17
2018-09-29T01:02:27.711Z,102536.52
2018-09-29T01:04:56.925Z,102542.39
2018-09-29T01:07:26.257Z,102545.31
2018-09-29T01:09:55.490Z,102551.60
2018-09-29T01:12:24.695Z,102554.83
2018-09-29T01:14:54.121Z,102550.17
2018-09-29T01:17:23.414Z,102546.53
2018-09-29T01:19:52.737Z,102541.01
2018-09-29T01:22:21.986Z,102546.98
2018-09-29T01:24:51.236Z,102541.87
2018-09-29T01:27:20.493Z,102536.03
2018-09-29T01:29:49.873Z,102536.10
2018-09-29T01:32:20.197Z,102540.74
2018-09-29T01:34:49.434Z,102535.73
2018-09-29T01:37:18.790Z,102538.91
2018-09-29T01:39:48.114Z,102534.60
2018-09-29T01:42:17.590Z,102535.02
2018-09-29T01:44:46.828Z,102530.20
2018-09-29T01:47:16.118Z,102532.41
2018-09-29T01:49:45.357Z,102536.34
2018-09-29T01:52:14.554Z,102538.49
2018-09-29T01:54:43.969Z,102529.28
2018-09-29T01:57:13.194Z,102535.94
2018-09-29T01:59:42.446Z,102528.47
2018-09-29T02:02:11.738Z,102537.38
2018-09-29T02:04:40.973Z,102535.45
2018-09-29T02:07:10.340Z,102534.27
2018-09-29T02:09:39.552Z,102536.56
2018-09-29T02:12:08.958Z,102547.61
2018-09-29T02:14:38.151Z,102545.77
2018-09-29T02:17:07.370Z,102544.55
2018-09-29T02:19:36.698Z,102539.28
2018-09-29T02:22:05.957Z,102548.74
2018-09-29T02:24:35.194Z,102547.00
2018-09-29T02:27:04.516Z,102547.05
2018-09-29T02:29:33.742Z,102548.89
2018-09-29T02:32:02.987Z,102551.10
2018-09-29T02:34:32.398Z,102543.52
2018-09-29T02:37:01.802Z,102542.97
2018-09-29T02:39:31.066Z,102539.30
2018-09-29T02:42:00.473Z,102541.47
2018-09-29T02:44:29.666Z,102543.16
2018-09-29T02:46:58.935Z,102549.40
2018-09-29T02:49:28.282Z,102544.61
2018-09-29T02:51:57.502Z,102543.42
2018-09-29T02:54:26.813Z,102541.52
2018-09-29T02:56:56.041Z,102540.00
2018-09-29T02:59:25.268Z,102531.77
2018-09-29T03:01:54.483Z,102525.42
2018-09-29T03:04:23.695Z,102522.66
2018-09-29T03:06:52.908Z,102514.38
2018-09-29T03:09:22.213Z,102517.30
2018-09-29T03:11:51.442Z,102522.16
2018-09-29T03:14:20.635Z,102520.47
2018-09-29T03:16:49.873Z,102520.20
2018-09-29T03:19:19.206Z,102522.02
2018-09-29T03:21:48.388Z,102518.94
2018-09-29T03:24:17.723Z,102517.59
2018-09-29T03:26:46.958Z,102520.27
2018-09-29T03:29:16.189Z,102517.47
2018-09-29T03:31:45.607Z,102514.91
2018-09-29T03:34:14.661Z,102516.74
2018-09-29T03:36:43.906Z,102516.64
2018-09-29T03:39:13.522Z,102524.56
2018-09-29T03:41:42.742Z,102525.52
2018-09-29T03:44:11.977Z,102522.31
2018-09-29T03:46:41.198Z,102533.35
2018-09-29T03:49:10.730Z,102529.37
2018-09-29T03:51:39.937Z,102524.56
2018-09-29T03:54:09.143Z,102528.18
2018-09-29T03:56:38.456Z,102529.10
2018-09-29T03:59:07.754Z,102535.80
2018-09-29T04:01:37.034Z,102538.77
2018-09-29T04:04:06.577Z,102529.56
2018-09-29T04:06:35.800Z,102537.64
2018-09-29T04:09:06.422Z,102530.12
2018-09-29T04:11:36.535Z,102529.05
2018-09-29T04:14:06.638Z,102529.27
2018-09-29T04:16:35.849Z,102520.94
2018-09-29T04:19:05.130Z,102518.98
2018-09-29T04:21:42.490Z,102523.09
2018-09-29T04:24:12.148Z,102521.55
2018-09-29T04:26:44.301Z,102512.76
2018-09-29T04:29:14.974Z,102507.63
2018-09-29T04:31:44.454Z,102500.81
2018-09-29T04:34:14.290Z,102495.30
2018-09-29T04:36:43.913Z,102496.96
2018-09-29T04:39:14.341Z,102501.88
2018-09-29T04:41:43.538Z,102505.30
2018-09-29T04:44:12.941Z,102513.12
2018-09-29T04:46:42.629Z,102518.78
2018-09-29T04:49:11.904Z,102522.83
2018-09-29T04:51:41.151Z,102527.06
2018-09-29T04:54:11.434Z,102524.81
2018-09-29T04:56:40.622Z,102525.84
2018-09-29T04:59:09.905Z,102528.04
2018-09-29T05:01:39.162Z,102529.88
2018-09-29T05:04:08.372Z,102537.81
2018-09-29T05:06:37.783Z,102537.70
2018-09-29T05:09:08.485Z,102536.66
2018-09-29T05:11:37.679Z,102536.51
2018-09-29T05:14:07.110Z,102527.38
2018-09-29T05:16:36.254Z,102528.55
2018-09-29T05:19:05.477Z,102521.56
2018-09-29T05:21:34.777Z,102516.89
2018-09-29T05:24:04.009Z,102521.75
2018-09-29T05:26:33.309Z,102517.75
2018-09-29T05:29:02.506Z,102515.61
2018-09-29T05:31:31.716Z,102513.28
2018-09-29T05:34:01.014Z,102508.30
2018-09-29T05:36:30.198Z,102509.28
2018-09-29T05:38:59.513Z,102513.80
2018-09-29T05:41:28.877Z,102511.56
2018-09-29T05:43:58.521Z,102517.16
2018-09-29T05:46:27.801Z,102516.53
2018-09-29T05:48:57.026Z,102516.81
2018-09-29T05:51:26.278Z,102518.78
2018-09-29T05:53:55.511Z,102515.11
2018-09-29T05:56:24.690Z,102526.47
2018-09-29T05:58:53.901Z,102514.48
2018-09-29T06:01:23.260Z,102512.66
2018-09-29T06:03:52.494Z,102510.08
2018-09-29T06:06:21.701Z,102509.42
2018-09-29T06:08:51.039Z,102512.32
2018-09-29T06:11:20.294Z,102511.55
2018-09-29T06:13:51.644Z,102515.80
2018-09-29T06:16:22.976Z,102519.28
2018-09-29T06:18:54.476Z,102513.08
2018-09-29T06:21:27.131Z,102519.54
2018-09-29T06:23:58.898Z,102520.09
2018-09-29T06:26:30.833Z,102518.29
2018-09-29T06:29:03.257Z,102514.23
2018-09-29T06:31:36.224Z,102520.64
2018-09-29T06:34:09.182Z,102513.91
2018-09-29T06:36:42.607Z,102516.05
2018-09-29T06:39:15.511Z,102509.67
2018-09-29T06:41:48.711Z,102506.06
2018-09-29T06:44:21.135Z,102511.87
2018-09-29T06:46:52.629Z,102496.24
2018-09-29T06:49:24.735Z,102492.58
2018-09-29T06:51:56.074Z,102496.58
2018-09-29T06:54:27.934Z,102491.73
2018-09-29T06:57:00.058Z,102494.71
2018-09-29T06:59:32.217Z,102501.72
2018-09-29T07:02:04.246Z,102502.52
2018-09-29T07:04:35.932Z,102494.95
2018-09-29T07:07:08.125Z,102502.48
2018-09-29T07:09:38.854Z,102496.69
2018-09-29T07:12:11.038Z,102494.37
2018-09-29T07:14:42.909Z,102505.77
2018-09-29T07:17:14.098Z,102503.78
2018-09-29T07:19:45.683Z,102513.91
2018-09-29T07:22:17.599Z,102525.12
2018-09-29T07:24:48.704Z,102523.04
2018-09-29T07:27:20.699Z,102524.02
2018-09-29T07:29:53.091Z,102529.23
2018-09-29T07:32:26.026Z,102534.28
2018-09-29T07:34:58.220Z,102533.95
2018-09-29T07:37:29.435Z,102528.43
2018-09-29T07:40:00.822Z,102523.45
2018-09-29T07:42:32.025Z,102525.72
2018-09-29T07:45:03.233Z,102525.29
2018-09-29T07:47:34.724Z,102527.70
2018-09-29T07:50:06.343Z,102527.61
2018-09-29T07:52:35.689Z,102524.96
2018-09-29T07:55:04.961Z,102535.14
2018-09-29T07:57:35.281Z,102545.05
2018-09-29T08:00:04.915Z,102536.30
2018-09-29T08:02:34.168Z,102538.86
2018-09-29T08:05:03.517Z,102533.34
2018-09-29T08:07:32.729Z,102531.39
2018-09-29T08:10:01.973Z,102536.41
2018-09-29T08:12:31.254Z,102540.53
2018-09-29T08:15:00.434Z,102536.78
2018-09-29T08:17:29.701Z,102539.00
2018-09-29T08:19:59.012Z,102527.95
2018-09-29T08:22:28.255Z,102530.49
2018-09-29T08:24:58.491Z,102530.96
2018-09-29T08:27:27.756Z,102543.17
2018-09-29T08:29:56.972Z,102534.16
2018-09-29T08:32:26.368Z,102532.42
2018-09-29T08:34:55.568Z,102533.38
2018-09-29T08:37:24.797Z,102518.67
2018-09-29T08:39:53.998Z,102520.94
2018-09-29T08:42:23.276Z,102523.07
2018-09-29T08:44:52.459Z,102520.02
2018-09-29T08:47:21.681Z,102502.38
2018-09-29T08:49:51.078Z,102503.48
2018-09-29T08:52:20.281Z,102496.71
2018-09-29T08:54:49.511Z,102506.33
2018-09-29T08:57:18.934Z,102504.71
2018-09-29T08:59:48.094Z,102493.31
2018-09-29T09:02:17.390Z,102499.50
2018-09-29T09:04:46.618Z,102500.25
2018-09-29T09:07:15.873Z,102505.97
2018-09-29T09:09:45.080Z,102515.06
2018-09-29T09:12:14.345Z,102513.66
2018-09-29T09:14:43.606Z,102508.06
2018-09-29T09:17:12.834Z,102506.38
2018-09-29T09:19:42.134Z,102499.02
2018-09-29T09:22:11.386Z,102500.49
2018-09-29T09:24:40.636Z,102499.91
2018-09-29T09:27:09.953Z,102502.14
2018-09-29T09:29:40.025Z,102494.72
2018-09-29T09:32:11.329Z,102488.95
2018-09-29T09:34:41.649Z,102482.91
2018-09-29T09:37:10.907Z,102476.60
2018-09-29T09:39:41.273Z,102475.89
2018-09-29T09:42:10.535Z,102470.53
2018-09-29T09:44:39.761Z,102462.64
2018-09-29T09:47:09.060Z,102456.20
2018-09-29T09:49:38.316Z,102456.35
2018-09-29T09:52:07.546Z,102445.93
2018-09-29T09:54:36.839Z,102451.31
2018-09-29T09:57:06.427Z,102454.64
2018-09-29T09:59:35.722Z,102449.91
2018-09-29T10:02:10.244Z,102442.42
2018-09-29T10:04:39.420Z,102443.64
2018-09-29T10:07:10.014Z,102444.59
2018-09-29T10:09:39.305Z,102453.87
2018-09-29T10:12:08.574Z,102446.23
2018-09-29T10:14:37.905Z,102450.59
2018-09-29T10:17:07.151Z,102452.44
2018-09-29T10:19:36.422Z,102449.97
2018-09-29T10:22:05.715Z,102448.55
2018-09-29T10:24:34.947Z,102447.20
2018-09-29T10:27:04.234Z,102450.27
2018-09-29T10:29:33.483Z,102440.33
2018-09-29T10:32:04.807Z,102438.06
2018-09-29T10:34:34.022Z,102439.38
2018-09-29T10:37:03.438Z,102436.55
2018-09-29T10:39:32.744Z,102432.28
2018-09-29T10:42:01.985Z,102437.20
2018-09-29T10:44:31.230Z,102433.47
2018-09-29T10:47:00.477Z,102430.08
2018-09-29T10:49:30.398Z,102423.92
2018-09-29T10:51:59.685Z,102418.72
2018-09-29T10:54:28.901Z,102418.52
2018-09-29T10:56:58.342Z,102417.08
2018-09-29T10:59:28.877Z,102415.89
2018-09-29T11:01:58.693Z,102408.92
2018-09-29T11:04:28.106Z,102406.61
2018-09-29T11:06:57.367Z,102392.96
2018-09-29T11:09:26.588Z,102400.43
2018-09-29T11:11:57.053Z,102390.86
2018-09-29T11:14:26.290Z,102384.38
2018-09-29T11:16:55.594Z,102386.25
2018-09-29T11:19:24.857Z,102385.42
2018-09-29T11:21:54.085Z,102377.90
2018-09-29T11:24:23.486Z,102380.36
2018-09-29T11:26:52.763Z,102382.80
2018-09-29T11:29:22.013Z,102373.11
2018-09-29T11:31:51.321Z,102376.21
2018-09-29T11:34:20.578Z,102378.22
2018-09-29T11:36:50.827Z,102363.09
2018-09-29T11:39:20.219Z,102363.91
2018-09-29T11:41:49.501Z,102361.89
2018-09-29T11:44:18.802Z,102343.59
2018-09-29T11:46:48.058Z,102337.66
2018-09-29T11:49:17.373Z,102336.94
2018-09-29T11:51:46.689Z,102332.03
2018-09-29T11:54:15.954Z,102328.81
2018-09-29T11:56:45.203Z,102330.47
2018-09-29T11:59:14.473Z,102327.91
2018-09-29T12:01:43.741Z,102326.38
2018-09-29T12:04:12.985Z,102325.91
2018-09-29T12:06:42.265Z,102323.11
2018-09-29T12:09:12.962Z,102318.13
2018-09-29T12:11:42.633Z,102311.01
2018-09-29T12:14:11.871Z,102311.36
2018-09-29T12:16:41.090Z,102297.52
2018-09-29T12:19:10.457Z,102294.97
2018-09-29T12:21:39.742Z,102279.58
2018-09-29T12:24:11.139Z,102285.45
2018-09-29T12:26:40.386Z,102286.32
2018-09-29T12:29:09.620Z,102281.45
2018-09-29T12:31:38.982Z,102280.97
2018-09-29T12:34:08.223Z,102280.48
2018-09-29T12:36:37.528Z,102273.78
2018-09-29T12:39:08.171Z,102275.91
2018-09-29T12:41:37.681Z,102269.74
2018-09-29T12:44:07.045Z,102266.36
2018-09-29T12:46:36.270Z,102258.13
2018-09-29T12:49:05.555Z,102255.48
2018-09-29T12:51:35.013Z,102256.86
2018-09-29T12:54:04.194Z,102246.53
2018-09-29T12:56:33.400Z,102249.38
2018-09-29T12:59:04.775Z,102238.86
2018-09-29T13:01:34.054Z,102243.75
2018-09-29T13:04:03.337Z,102240.86
2018-09-29T13:06:32.529Z,102231.51
2018-09-29T13:09:01.776Z,102229.66
2018-09-29T13:11:31.002Z,102233.75
2018-09-29T13:14:00.467Z,102234.36
2018-09-29T13:16:29.619Z,102230.20
2018-09-29T13:18:58.818Z,102230.37
2018-09-29T13:21:28.041Z,102228.12
2018-09-29T13:23:57.358Z,102220.92
2018-09-29T13:26:26.581Z,102229.09
2018-09-29T13:28:55.817Z,102226.41
2018-09-29T13:31:25.169Z,102226.51
2018-09-29T13:33:54.387Z,102223.55
2018-09-29T13:36:23.680Z,102214.52
2018-09-29T13:38:52.918Z,102213.55
2018-09-29T13:41:22.118Z,102213.98
2018-09-29T13:43:52.442Z,102218.43
2018-09-29T13:46:21.786Z,102219.98
2018-09-29T13:48:51.038Z,102217.49
2018-09-29T13:51:20.357Z,102218.05
2018-09-29T13:53:49.696Z,102210.24
2018-09-29T13:56:18.841Z,102216.48
2018-09-29T13:58:48.526Z,102211.66
2018-09-29T14:01:17.911Z,102213.47
2018-09-29T14:03:47.169Z,102214.33
2018-09-29T14:06:16.515Z,102206.49
2018-09-29T14:08:52.521Z,102200.73
2018-09-29T14:11:21.755Z,102198.63
2018-09-29T14:13:51.034Z,102189.22
2018-09-29T14:16:20.354Z,102185.20
2018-09-29T14:18:49.615Z,102188.00
2018-09-29T14:21:18.894Z,102181.50
2018-09-29T14:23:48.129Z,102186.47
2018-09-29T14:26:17.421Z,102189.06
2018-09-29T14:28:46.634Z,102175.06
2018-09-29T14:31:16.061Z,102173.62
2018-09-29T14:33:45.592Z,102171.20
2018-09-29T14:36:14.848Z,102167.78
2018-09-29T14:38:44.109Z,102162.20
2018-09-29T14:41:13.454Z,102159.13
2018-09-29T14:43:42.674Z,102168.91
2018-09-29T14:46:12.051Z,102154.58
2018-09-29T14:48:41.279Z,102154.90
2018-09-29T14:51:10.524Z,102149.35
2018-09-29T14:53:39.858Z,102153.35
2018-09-29T14:56:09.083Z,102152.80
2018-09-29T14:58:38.522Z,102148.97
2018-09-29T15:01:08.146Z,102144.94
2018-09-29T15:03:37.418Z,102141.73
2018-09-29T15:06:06.643Z,102144.36
2018-09-29T15:08:35.930Z,102139.73
2018-09-29T15:11:05.186Z,102137.91
2018-09-29T15:13:34.449Z,102141.84
2018-09-29T15:16:03.769Z,102135.13
2018-09-29T15:18:34.032Z,102131.98
2018-09-29T15:21:03.646Z,102127.75
2018-09-29T15:23:32.895Z,102124.30
2018-09-29T15:26:07.643Z,102122.92
2018-09-29T15:28:57.982Z,102112.55
2018-09-29T15:31:27.421Z,102114.00
2018-09-29T15:33:56.774Z,102118.19
2018-09-29T15:36:26.017Z,102115.52
2018-09-29T15:38:55.260Z,102112.86
2018-09-29T15:41:24.728Z,102111.14
2018-09-29T15:43:53.942Z,102115.17
2018-09-29T15:46:23.227Z,102101.73
2018-09-29T15:48:52.501Z,102092.33
2018-09-29T15:51:21.737Z,102096.53
2018-09-29T15:53:50.969Z,102091.37
2018-09-29T15:56:20.206Z,102085.44
2018-09-29T15:58:49.492Z,102090.20
2018-09-29T16:01:18.810Z,102085.79
2018-09-29T16:03:48.085Z,102090.51
2018-09-29T16:06:17.332Z,102085.52
2018-09-29T16:08:46.672Z,102082.45
2018-09-29T16:11:15.962Z,102083.41
2018-09-29T16:13:45.196Z,102072.39
2018-09-29T16:16:14.460Z,102076.01
2018-09-29T16:18:43.818Z,102073.53
2018-09-29T16:21:13.146Z,102068.94
2018-09-29T16:23:42.385Z,102076.14
2018-09-29T16:27:37.192Z,102070.84
2018-09-29T16:30:06.918Z,102065.70
2018-09-29T16:32:36.179Z,102063.46
2018-09-29T16:35:06.369Z,102065.28
2018-09-29T16:37:35.622Z,102064.73
2018-09-29T16:40:04.899Z,102065.28
2018-09-29T16:42:34.325Z,102070.09
2018-09-29T16:45:03.588Z,102066.06
2018-09-29T16:47:32.782Z,102071.63
2018-09-29T16:50:02.082Z,102071.63
2018-09-29T16:52:31.318Z,102067.41
2018-09-29T16:55:00.554Z,102070.46
2018-09-29T16:57:29.952Z,102063.75
2018-09-29T16:59:59.185Z,102061.84
2018-09-29T17:02:28.420Z,102054.57
2018-09-29T17:04:57.691Z,102062.52
2018-09-29T17:07:26.944Z,102063.00
2018-09-29T17:11:20.789Z,102061.66
2018-09-29T17:13:50.053Z,102055.53
2018-09-29T17:16:19.277Z,102048.41
2018-09-29T17:18:48.598Z,102053.59
2018-09-29T17:21:18.008Z,102049.20
2018-09-29T17:23:47.213Z,102050.25
2018-09-29T17:26:16.553Z,102050.73
2018-09-29T17:28:45.796Z,102047.09
2018-09-29T17:31:15.064Z,102052.44
2018-09-29T17:33:44.421Z,102048.91
2018-09-29T17:36:13.668Z,102049.56
2018-09-29T17:38:43.049Z,102044.48
2018-09-29T17:41:12.457Z,102045.14
2018-09-29T17:43:41.666Z,102041.52
2018-09-29T17:46:10.899Z,102041.69
2018-09-29T17:48:40.430Z,102035.95
2018-09-29T17:51:09.911Z,102046.75
2018-09-29T17:53:39.223Z,102044.93
2018-09-29T17:56:08.492Z,102034.61
2018-09-29T17:58:38.339Z,102036.38
2018-09-29T18:01:07.624Z,102036.28
2018-09-29T18:03:36.845Z,102036.86
2018-09-29T18:06:06.157Z,102038.72
2018-09-29T18:08:35.460Z,102034.48
2018-09-29T18:11:04.677Z,102032.20
2018-09-29T18:13:33.972Z,102028.22
2018-09-29T18:16:03.307Z,102025.41
2018-09-29T18:18:32.614Z,102029.81
2018-09-29T18:21:01.826Z,102033.22
2018-09-29T18:23:32.126Z,102026.66
2018-09-29T18:26:01.339Z,102028.81
2018-09-29T18:28:30.588Z,102031.20
2018-09-29T18:30:59.935Z,102023.07
2018-09-29T18:33:29.163Z,102030.53
2018-09-29T18:35:58.406Z,102031.83
2018-09-29T18:38:27.749Z,102029.63
2018-09-29T18:40:57.056Z,102021.54
2018-09-29T18:43:26.309Z,102025.22
2018-09-29T18:45:55.726Z,102022.49
2018-09-29T18:48:24.921Z,102016.45
2018-09-29T18:50:54.145Z,102015.12
2018-09-29T18:53:23.554Z,102010.75
2018-09-29T18:55:52.816Z,102014.86
2018-09-29T18:58:22.150Z,102011.89
2018-09-29T19:00:51.630Z,101999.70
2018-09-29T19:03:20.843Z,102001.78
2018-09-29T19:05:50.060Z,101993.84
2018-09-29T19:08:19.418Z,101996.52
2018-09-29T19:10:48.733Z,101989.59
2018-09-29T19:13:18.731Z,101991.31
2018-09-29T19:15:48.278Z,101984.51
2018-09-29T19:18:18.292Z,101990.96
2018-09-29T19:20:47.519Z,101983.27
2018-09-29T19:23:16.971Z,101991.29
2018-09-29T19:25:46.229Z,101982.07
2018-09-29T19:28:15.498Z,101984.75
2018-09-29T19:30:47.078Z,101981.92
2018-09-29T19:33:16.339Z,101974.62
2018-09-29T19:35:45.555Z,101977.69
2018-09-29T19:38:17.500Z,101966.98
2018-09-29T19:40:47.722Z,101966.84
2018-09-29T19:43:17.074Z,101966.25
2018-09-29T19:45:46.480Z,101960.66
2018-09-29T19:48:15.708Z,101963.70
2018-09-29T19:50:45.226Z,101956.32
2018-09-29T19:53:14.518Z,101956.28
2018-09-29T19:55:43.733Z,101953.02
2018-09-29T19:58:13.004Z,101946.92
2018-09-29T20:00:42.265Z,101949.98
2018-09-29T20:03:11.533Z,101947.19
2018-09-29T20:05:41.797Z,101939.59
2018-09-29T20:08:11.907Z,101938.92
2018-09-29T20:10:41.187Z,101932.80
2018-09-29T20:13:10.377Z,101921.33
2018-09-29T20:15:39.585Z,101918.02
2018-09-29T20:18:08.870Z,101908.63
2018-09-29T20:20:38.078Z,101908.00
2018-09-29T20:23:07.429Z,101903.60
2018-09-29T20:25:36.758Z,101904.48
2018-09-29T20:28:06.078Z,101891.45
2018-09-29T20:30:35.372Z,101893.26
2018-09-29T20:33:04.718Z,101889.55
2018-09-29T20:35:35.080Z,101887.17
2018-09-29T20:38:04.376Z,101887.73
2018-09-29T20:40:33.617Z,101879.47
2018-09-29T20:43:06.894Z,101870.30
2018-09-29T20:45:36.109Z,101865.98
2018-09-29T20:48:05.357Z,101861.80
2018-09-29T20:50:34.650Z,101864.09
2018-09-29T20:53:03.901Z,101862.92
2018-09-29T20:55:33.180Z,101859.69
2018-09-29T20:58:02.689Z,101850.03
2018-09-29T21:00:31.937Z,101844.06
2018-09-29T21:03:01.178Z,101836.52
2018-09-29T21:05:30.516Z,101830.70
2018-09-29T21:07:59.783Z,101825.70
2018-09-29T21:10:29.042Z,101824.94
2018-09-29T21:12:58.489Z,101827.36
2018-09-29T21:15:27.628Z,101826.37
2018-09-29T21:17:56.906Z,101819.13
2018-09-29T21:20:26.397Z,101826.29
2018-09-29T21:22:55.714Z,101818.19
2018-09-29T21:25:25.264Z,101820.08
2018-09-29T21:27:54.597Z,101814.56
2018-09-29T21:30:23.809Z,101816.37
2018-09-29T21:32:53.021Z,101804.05
2018-09-29T21:35:22.292Z,101804.67
2018-09-29T21:37:51.506Z,101806.09
2018-09-29T21:40:21.110Z,101804.28
2018-09-29T21:42:50.321Z,101801.70
2018-09-29T21:45:19.562Z,101801.70
2018-09-29T21:47:48.906Z,101803.34
2018-09-29T21:50:18.174Z,101804.93
2018-09-29T21:52:47.423Z,101795.97
2018-09-29T21:55:16.651Z,101798.25
2018-09-29T21:57:45.878Z,101794.24
2018-09-29T22:00:21.365Z,101798.55
2018-09-29T22:02:50.585Z,101793.47
2018-09-29T22:05:19.902Z,101800.29
2018-09-29T22:07:49.233Z,101791.41
2018-09-29T22:10:18.587Z,101792.06
2018-09-29T22:12:47.787Z,101783.84
2018-09-29T22:15:17.239Z,101783.59
2018-09-29T22:17:46.470Z,101779.55
2018-09-29T22:20:15.683Z,101774.26
2018-09-29T22:22:44.941Z,101771.92
2018-09-29T22:25:14.189Z,101775.12
2018-09-29T22:27:44.450Z,101773.78
2018-09-29T22:30:13.751Z,101770.51
2018-09-29T22:32:42.981Z,101767.06
2018-09-29T22:35:12.330Z,101770.82
2018-09-29T22:37:41.758Z,101763.38
2018-09-29T22:40:11.036Z,101760.23
2018-09-29T22:42:40.271Z,101758.04
2018-09-29T22:45:09.559Z,101751.84
2018-09-29T22:47:38.841Z,101755.14
2018-09-29T22:50:08.090Z,101749.80
2018-09-29T22:52:37.392Z,101735.91
2018-09-29T22:55:06.615Z,101739.44
2018-09-29T22:57:36.763Z,101742.36
2018-09-29T23:00:07.358Z,101743.84
2018-09-29T23:02:36.580Z,101744.78
2018-09-29T23:05:05.798Z,101737.67
2018-09-29T23:07:36.147Z,101734.58
2018-09-29T23:10:05.454Z,101745.09
2018-09-29T23:12:34.701Z,101735.84
2018-09-29T23:15:03.990Z,101736.45
2018-09-29T23:17:33.214Z,101732.36
2018-09-29T23:20:02.491Z,101738.50
2018-09-29T23:22:31.785Z,101725.94
2018-09-29T23:25:01.095Z,101730.03
2018-09-29T23:27:30.421Z,101717.38
2018-09-29T23:29:59.725Z,101722.02
2018-09-29T23:32:28.954Z,101720.86
2018-09-29T23:34:58.181Z,101716.05
2018-09-29T23:37:27.550Z,101714.88
2018-09-29T23:39:56.841Z,101718.33
2018-09-29T23:42:26.089Z,101716.69
2018-09-29T23:44:55.313Z,101711.05
2018-09-29T23:47:24.499Z,101711.69
2018-09-29T23:49:53.704Z,101711.34
2018-09-29T23:52:23.021Z,101708.20
2018-09-29T23:54:52.215Z,101706.48
2018-09-29T23:57:21.409Z,101707.42
2018-09-29T23:59:50.766Z,101710.56
